sensor_id;sensor_type;location;lat;lon;timestamp;P1;durP1;ratioP1;P2;durP2;ratioP2
73296;SDS011;61524;50.938;11.396;2022-11-15T00:01:34;7.82;;;4.22;;
73296;SDS011;61524;50.938;11.396;2022-11-15T00:04:00;7.75;;;3.13;;
73296;SDS011;61524;50.938;11.396;2022-11-15T00:06:25;7.38;;;3.47;;
73296;SDS011;61524;50.938;11.396;2022-11-15T00:08:51;7.40;;;3.63;;
73296;SDS011;61524;50.938;11.396;2022-11-15T00:11:17;5.82;;;3.30;;
73296;SDS011;61524;50.938;11.396;2022-11-15T00:13:42;5.88;;;3.00;;
73296;SDS011;61524;50.938;11.396;2022-11-15T00:16:08;5.63;;;3.60;;
73296;SDS011;61524;50.938;11.396;2022-11-15T00:18:33;9.80;;;3.13;;
73296;SDS011;61524;50.938;11.396;2022-11-15T00:21:04;8.13;;;3.70;;
73296;SDS011;61524;50.938;11.396;2022-11-15T00:23:31;5.20;;;3.13;;
73296;SDS011;61524;50.938;11.396;2022-11-15T00:25:58;6.72;;;2.58;;
73296;SDS011;61524;50.938;11.396;2022-11-15T00:28:24;7.90;;;3.35;;
73296;SDS011;61524;50.938;11.396;2022-11-15T00:30:50;5.30;;;2.80;;
73296;SDS011;61524;50.938;11.396;2022-11-15T00:33:15;7.35;;;3.70;;
73296;SDS011;61524;50.938;11.396;2022-11-15T00:35:40;6.35;;;3.40;;
73296;SDS011;61524;50.938;11.396;2022-11-15T00:38:06;5.60;;;3.03;;
73296;SDS011;61524;50.938;11.396;2022-11-15T00:40:31;8.85;;;4.50;;
73296;SDS011;61524;50.938;11.396;2022-11-15T00:42:57;6.57;;;3.50;;
73296;SDS011;61524;50.938;11.396;2022-11-15T00:45:23;7.05;;;3.05;;
73296;SDS011;61524;50.938;11.396;2022-11-15T00:47:49;6.82;;;3.22;;
73296;SDS011;61524;50.938;11.396;2022-11-15T00:50:15;6.15;;;3.03;;
73296;SDS011;61524;50.938;11.396;2022-11-15T00:52:41;6.47;;;3.80;;
73296;SDS011;61524;50.938;11.396;2022-11-15T00:55:06;8.52;;;3.40;;
73296;SDS011;61524;50.938;11.396;2022-11-15T00:57:33;6.13;;;3.33;;
73296;SDS011;61524;50.938;11.396;2022-11-15T00:59:58;6.97;;;3.50;;
73296;SDS011;61524;50.938;11.396;2022-11-15T01:02:24;7.18;;;3.60;;
73296;SDS011;61524;50.938;11.396;2022-11-15T01:04:49;7.90;;;3.70;;
73296;SDS011;61524;50.938;11.396;2022-11-15T01:07:15;7.57;;;3.33;;
73296;SDS011;61524;50.938;11.396;2022-11-15T01:09:40;6.55;;;3.97;;
73296;SDS011;61524;50.938;11.396;2022-11-15T01:12:06;9.50;;;3.80;;
73296;SDS011;61524;50.938;11.396;2022-11-15T01:14:31;6.20;;;3.75;;
73296;SDS011;61524;50.938;11.396;2022-11-15T01:16:56;8.07;;;4.20;;
73296;SDS011;61524;50.938;11.396;2022-11-15T01:19:22;7.88;;;3.33;;
73296;SDS011;61524;50.938;11.396;2022-11-15T01:21:50;6.63;;;3.42;;
73296;SDS011;61524;50.938;11.396;2022-11-15T01:24:16;6.25;;;3.15;;
73296;SDS011;61524;50.938;11.396;2022-11-15T01:26:42;7.80;;;4.05;;
73296;SDS011;61524;50.938;11.396;2022-11-15T01:29:07;8.07;;;3.10;;
73296;SDS011;61524;50.938;11.396;2022-11-15T01:31:33;8.32;;;3.60;;
73296;SDS011;61524;50.938;11.396;2022-11-15T01:33:58;7.10;;;3.65;;
73296;SDS011;61524;50.938;11.396;2022-11-15T01:36:23;5.97;;;3.22;;
73296;SDS011;61524;50.938;11.396;2022-11-15T01:38:56;6.43;;;3.33;;
73296;SDS011;61524;50.938;11.396;2022-11-15T01:43:51;9.00;;;3.30;;
73296;SDS011;61524;50.938;11.396;2022-11-15T01:48:46;7.00;;;3.92;;
73296;SDS011;61524;50.938;11.396;2022-11-15T01:51:14;7.65;;;3.53;;
73296;SDS011;61524;50.938;11.396;2022-11-15T01:53:43;9.38;;;3.30;;
73296;SDS011;61524;50.938;11.396;2022-11-15T01:56:13;8.23;;;3.22;;
73296;SDS011;61524;50.938;11.396;2022-11-15T01:58:43;7.35;;;3.20;;
73296;SDS011;61524;50.938;11.396;2022-11-15T02:01:10;6.65;;;3.08;;
73296;SDS011;61524;50.938;11.396;2022-11-15T02:06:12;5.88;;;3.10;;
73296;SDS011;61524;50.938;11.396;2022-11-15T02:08:37;7.97;;;4.03;;
73296;SDS011;61524;50.938;11.396;2022-11-15T02:11:04;7.72;;;4.03;;
73296;SDS011;61524;50.938;11.396;2022-11-15T02:13:32;6.78;;;3.38;;
73296;SDS011;61524;50.938;11.396;2022-11-15T02:16:17;9.25;;;4.50;;
73296;SDS011;61524;50.938;11.396;2022-11-15T02:18:56;7.75;;;3.20;;
73296;SDS011;61524;50.938;11.396;2022-11-15T02:37:48;8.27;;;3.42;;
73296;SDS011;61524;50.938;11.396;2022-11-15T02:40:38;5.70;;;3.20;;
73296;SDS011;61524;50.938;11.396;2022-11-15T02:43:12;8.32;;;3.33;;
73296;SDS011;61524;50.938;11.396;2022-11-15T02:46:04;5.65;;;3.20;;
73296;SDS011;61524;50.938;11.396;2022-11-15T02:48:35;4.70;;;2.75;;
73296;SDS011;61524;50.938;11.396;2022-11-15T02:51:01;5.95;;;3.38;;
73296;SDS011;61524;50.938;11.396;2022-11-15T02:53:27;5.93;;;2.97;;
73296;SDS011;61524;50.938;11.396;2022-11-15T02:55:53;5.70;;;3.10;;
73296;SDS011;61524;50.938;11.396;2022-11-15T03:11:50;8.45;;;3.60;;
73296;SDS011;61524;50.938;11.396;2022-11-15T03:17:45;7.00;;;3.63;;
73296;SDS011;61524;50.938;11.396;2022-11-15T03:19:52;5.82;;;2.55;;
73296;SDS011;61524;50.938;11.396;2022-11-15T03:22:21;5.63;;;3.05;;
73296;SDS011;61524;50.938;11.396;2022-11-15T03:24:52;5.82;;;3.90;;
73296;SDS011;61524;50.938;11.396;2022-11-15T03:27:27;5.30;;;2.53;;
73296;SDS011;61524;50.938;11.396;2022-11-15T03:29:58;5.45;;;2.92;;
73296;SDS011;61524;50.938;11.396;2022-11-15T03:32:28;7.25;;;3.05;;
73296;SDS011;61524;50.938;11.396;2022-11-15T03:35:06;8.27;;;3.28;;
73296;SDS011;61524;50.938;11.396;2022-11-15T03:37:44;6.15;;;3.03;;
73296;SDS011;61524;50.938;11.396;2022-11-15T03:40:15;5.75;;;3.08;;
73296;SDS011;61524;50.938;11.396;2022-11-15T03:42:43;5.72;;;3.38;;
73296;SDS011;61524;50.938;11.396;2022-11-15T03:45:18;3.90;;;2.33;;
73296;SDS011;61524;50.938;11.396;2022-11-15T03:47:58;6.57;;;3.58;;
73296;SDS011;61524;50.938;11.396;2022-11-15T03:50:29;5.85;;;3.00;;
73296;SDS011;61524;50.938;11.396;2022-11-15T03:52:55;5.85;;;2.80;;
73296;SDS011;61524;50.938;11.396;2022-11-15T03:55:21;7.38;;;3.55;;
73296;SDS011;61524;50.938;11.396;2022-11-15T03:57:48;6.50;;;4.13;;
73296;SDS011;61524;50.938;11.396;2022-11-15T04:00:15;4.53;;;2.85;;
73296;SDS011;61524;50.938;11.396;2022-11-15T04:02:41;5.80;;;3.08;;
73296;SDS011;61524;50.938;11.396;2022-11-15T04:05:07;7.50;;;3.92;;
73296;SDS011;61524;50.938;11.396;2022-11-15T04:07:32;7.38;;;3.22;;
73296;SDS011;61524;50.938;11.396;2022-11-15T04:09:58;5.80;;;2.40;;
73296;SDS011;61524;50.938;11.396;2022-11-15T04:15:02;8.73;;;3.10;;
73296;SDS011;61524;50.938;11.396;2022-11-15T04:17:33;5.10;;;2.90;;
73296;SDS011;61524;50.938;11.396;2022-11-15T04:20:07;7.40;;;3.58;;
73296;SDS011;61524;50.938;11.396;2022-11-15T04:22:54;9.85;;;3.50;;
73296;SDS011;61524;50.938;11.396;2022-11-15T04:25:40;7.40;;;3.10;;
73296;SDS011;61524;50.938;11.396;2022-11-15T04:28:06;4.65;;;2.05;;
73296;SDS011;61524;50.938;11.396;2022-11-15T04:30:32;6.53;;;3.22;;
73296;SDS011;61524;50.938;11.396;2022-11-15T04:32:57;4.55;;;2.13;;
73296;SDS011;61524;50.938;11.396;2022-11-15T04:35:23;5.32;;;2.47;;
73296;SDS011;61524;50.938;11.396;2022-11-15T04:37:48;4.72;;;2.47;;
73296;SDS011;61524;50.938;11.396;2022-11-15T04:40:14;5.97;;;3.15;;
73296;SDS011;61524;50.938;11.396;2022-11-15T04:42:42;5.75;;;2.63;;
73296;SDS011;61524;50.938;11.396;2022-11-15T04:45:08;5.03;;;2.55;;
73296;SDS011;61524;50.938;11.396;2022-11-15T04:47:34;5.18;;;2.55;;
73296;SDS011;61524;50.938;11.396;2022-11-15T04:50:00;6.55;;;2.92;;
73296;SDS011;61524;50.938;11.396;2022-11-15T04:52:25;4.47;;;2.30;;
73296;SDS011;61524;50.938;11.396;2022-11-15T04:54:50;5.10;;;3.13;;
73296;SDS011;61524;50.938;11.396;2022-11-15T04:57:16;4.40;;;2.63;;
73296;SDS011;61524;50.938;11.396;2022-11-15T04:59:41;5.28;;;2.47;;
73296;SDS011;61524;50.938;11.396;2022-11-15T05:02:07;4.35;;;2.80;;
73296;SDS011;61524;50.938;11.396;2022-11-15T05:04:32;8.77;;;3.95;;
73296;SDS011;61524;50.938;11.396;2022-11-15T05:06:58;7.18;;;3.38;;
73296;SDS011;61524;50.938;11.396;2022-11-15T05:09:23;7.85;;;3.03;;
73296;SDS011;61524;50.938;11.396;2022-11-15T05:11:49;5.78;;;2.97;;
73296;SDS011;61524;50.938;11.396;2022-11-15T05:14:14;6.47;;;2.85;;
73296;SDS011;61524;50.938;11.396;2022-11-15T05:16:40;5.90;;;3.08;;
73296;SDS011;61524;50.938;11.396;2022-11-15T05:19:07;6.97;;;3.45;;
73296;SDS011;61524;50.938;11.396;2022-11-15T05:21:32;7.15;;;2.78;;
73296;SDS011;61524;50.938;11.396;2022-11-15T05:23:59;6.03;;;3.15;;
73296;SDS011;61524;50.938;11.396;2022-11-15T05:26:25;8.50;;;3.80;;
73296;SDS011;61524;50.938;11.396;2022-11-15T05:28:54;4.95;;;2.80;;
73296;SDS011;61524;50.938;11.396;2022-11-15T05:31:21;8.02;;;3.63;;
73296;SDS011;61524;50.938;11.396;2022-11-15T05:33:47;6.38;;;3.10;;
73296;SDS011;61524;50.938;11.396;2022-11-15T05:36:19;7.60;;;3.83;;
73296;SDS011;61524;50.938;11.396;2022-11-15T05:38:47;5.85;;;3.25;;
73296;SDS011;61524;50.938;11.396;2022-11-15T05:43:40;6.93;;;3.10;;
73296;SDS011;61524;50.938;11.396;2022-11-15T05:46:07;7.05;;;3.20;;
73296;SDS011;61524;50.938;11.396;2022-11-15T05:48:36;5.57;;;3.10;;
73296;SDS011;61524;50.938;11.396;2022-11-15T05:51:04;5.63;;;3.20;;
73296;SDS011;61524;50.938;11.396;2022-11-15T05:55:56;6.78;;;3.85;;
73296;SDS011;61524;50.938;11.396;2022-11-15T05:58:22;7.32;;;2.80;;
73296;SDS011;61524;50.938;11.396;2022-11-15T06:00:48;6.35;;;3.85;;
73296;SDS011;61524;50.938;11.396;2022-11-15T06:03:13;5.30;;;2.72;;
73296;SDS011;61524;50.938;11.396;2022-11-15T06:05:39;6.25;;;2.55;;
73296;SDS011;61524;50.938;11.396;2022-11-15T06:08:05;6.72;;;3.83;;
73296;SDS011;61524;50.938;11.396;2022-11-15T06:10:30;6.47;;;3.35;;
73296;SDS011;61524;50.938;11.396;2022-11-15T06:12:57;6.32;;;3.40;;
73296;SDS011;61524;50.938;11.396;2022-11-15T06:15:23;7.25;;;3.78;;
73296;SDS011;61524;50.938;11.396;2022-11-15T06:17:48;5.45;;;3.00;;
73296;SDS011;61524;50.938;11.396;2022-11-15T06:20:14;7.38;;;2.88;;
73296;SDS011;61524;50.938;11.396;2022-11-15T06:22:40;6.07;;;2.80;;
73296;SDS011;61524;50.938;11.396;2022-11-15T06:25:05;6.88;;;2.88;;
73296;SDS011;61524;50.938;11.396;2022-11-15T06:27:31;5.97;;;3.35;;
73296;SDS011;61524;50.938;11.396;2022-11-15T06:29:56;5.93;;;3.10;;
73296;SDS011;61524;50.938;11.396;2022-11-15T06:32:22;7.03;;;3.83;;
73296;SDS011;61524;50.938;11.396;2022-11-15T06:34:47;7.65;;;3.95;;
73296;SDS011;61524;50.938;11.396;2022-11-15T06:37:12;6.63;;;3.97;;
73296;SDS011;61524;50.938;11.396;2022-11-15T06:39:38;6.68;;;3.50;;
73296;SDS011;61524;50.938;11.396;2022-11-15T06:42:03;7.13;;;4.05;;
73296;SDS011;61524;50.938;11.396;2022-11-15T06:44:29;7.88;;;3.13;;
73296;SDS011;61524;50.938;11.396;2022-11-15T06:46:54;6.43;;;3.55;;
73296;SDS011;61524;50.938;11.396;2022-11-15T06:49:19;5.25;;;3.55;;
73296;SDS011;61524;50.938;11.396;2022-11-15T06:51:45;6.32;;;3.25;;
73296;SDS011;61524;50.938;11.396;2022-11-15T06:54:10;8.13;;;3.47;;
73296;SDS011;61524;50.938;11.396;2022-11-15T06:56:36;10.50;;;4.03;;
73296;SDS011;61524;50.938;11.396;2022-11-15T06:59:01;8.10;;;3.65;;
73296;SDS011;61524;50.938;11.396;2022-11-15T07:01:26;9.70;;;3.78;;
73296;SDS011;61524;50.938;11.396;2022-11-15T07:03:52;11.40;;;3.47;;
73296;SDS011;61524;50.938;11.396;2022-11-15T07:06:17;9.95;;;4.60;;
73296;SDS011;61524;50.938;11.396;2022-11-15T07:08:43;7.22;;;4.30;;
73296;SDS011;61524;50.938;11.396;2022-11-15T07:11:08;6.35;;;3.45;;
73296;SDS011;61524;50.938;11.396;2022-11-15T07:13:34;7.35;;;3.63;;
73296;SDS011;61524;50.938;11.396;2022-11-15T07:16:01;7.88;;;3.70;;
73296;SDS011;61524;50.938;11.396;2022-11-15T07:18:33;7.70;;;3.58;;
73296;SDS011;61524;50.938;11.396;2022-11-15T07:21:06;7.50;;;3.50;;
73296;SDS011;61524;50.938;11.396;2022-11-15T07:23:35;8.82;;;4.65;;
73296;SDS011;61524;50.938;11.396;2022-11-15T07:26:03;8.27;;;4.32;;
73296;SDS011;61524;50.938;11.396;2022-11-15T07:28:29;7.68;;;4.60;;
73296;SDS011;61524;50.938;11.396;2022-11-15T07:30:54;8.27;;;4.35;;
73296;SDS011;61524;50.938;11.396;2022-11-15T07:33:20;6.35;;;3.90;;
73296;SDS011;61524;50.938;11.396;2022-11-15T07:35:46;9.02;;;4.63;;
73296;SDS011;61524;50.938;11.396;2022-11-15T07:38:14;8.27;;;4.35;;
73296;SDS011;61524;50.938;11.396;2022-11-15T07:40:41;12.40;;;5.40;;
73296;SDS011;61524;50.938;11.396;2022-11-15T07:43:07;8.15;;;4.35;;
73296;SDS011;61524;50.938;11.396;2022-11-15T07:45:33;8.68;;;4.38;;
73296;SDS011;61524;50.938;11.396;2022-11-15T07:47:59;6.65;;;4.10;;
73296;SDS011;61524;50.938;11.396;2022-11-15T07:50:26;6.72;;;4.10;;
73296;SDS011;61524;50.938;11.396;2022-11-15T07:52:57;9.27;;;4.03;;
73296;SDS011;61524;50.938;11.396;2022-11-15T07:55:25;6.85;;;3.60;;
73296;SDS011;61524;50.938;11.396;2022-11-15T07:57:52;7.80;;;3.35;;
73296;SDS011;61524;50.938;11.396;2022-11-15T08:00:24;7.13;;;3.88;;
73296;SDS011;61524;50.938;11.396;2022-11-15T08:02:50;7.07;;;3.72;;
73296;SDS011;61524;50.938;11.396;2022-11-15T08:05:15;6.20;;;3.97;;
73296;SDS011;61524;50.938;11.396;2022-11-15T08:07:40;7.70;;;4.00;;
73296;SDS011;61524;50.938;11.396;2022-11-15T08:10:06;6.53;;;3.70;;
73296;SDS011;61524;50.938;11.396;2022-11-15T08:12:32;8.00;;;4.30;;
73296;SDS011;61524;50.938;11.396;2022-11-15T08:14:59;6.70;;;3.97;;
73296;SDS011;61524;50.938;11.396;2022-11-15T08:17:24;7.90;;;4.10;;
73296;SDS011;61524;50.938;11.396;2022-11-15T08:19:50;7.88;;;3.60;;
73296;SDS011;61524;50.938;11.396;2022-11-15T08:22:15;9.10;;;3.78;;
73296;SDS011;61524;50.938;11.396;2022-11-15T08:24:41;7.20;;;3.85;;
73296;SDS011;61524;50.938;11.396;2022-11-15T08:27:07;7.07;;;3.95;;
73296;SDS011;61524;50.938;11.396;2022-11-15T08:29:39;6.80;;;4.53;;
73296;SDS011;61524;50.938;11.396;2022-11-15T08:32:06;6.90;;;3.45;;
73296;SDS011;61524;50.938;11.396;2022-11-15T08:34:32;7.43;;;4.32;;
73296;SDS011;61524;50.938;11.396;2022-11-15T08:36:58;6.35;;;3.17;;
73296;SDS011;61524;50.938;11.396;2022-11-15T08:39:23;7.07;;;3.47;;
73296;SDS011;61524;50.938;11.396;2022-11-15T08:41:48;7.88;;;4.00;;
73296;SDS011;61524;50.938;11.396;2022-11-15T08:44:14;8.77;;;3.67;;
73296;SDS011;61524;50.938;11.396;2022-11-15T08:46:39;7.90;;;3.97;;
73296;SDS011;61524;50.938;11.396;2022-11-15T08:49:05;8.70;;;4.53;;
73296;SDS011;61524;50.938;11.396;2022-11-15T08:51:30;7.35;;;4.20;;
73296;SDS011;61524;50.938;11.396;2022-11-15T08:53:56;8.80;;;4.97;;
73296;SDS011;61524;50.938;11.396;2022-11-15T08:56:21;10.38;;;6.28;;
73296;SDS011;61524;50.938;11.396;2022-11-15T08:58:46;10.10;;;6.55;;
73296;SDS011;61524;50.938;11.396;2022-11-15T09:01:16;10.25;;;5.65;;
73296;SDS011;61524;50.938;11.396;2022-11-15T09:03:43;8.90;;;4.53;;
73296;SDS011;61524;50.938;11.396;2022-11-15T09:06:09;7.53;;;3.70;;
73296;SDS011;61524;50.938;11.396;2022-11-15T09:08:34;6.53;;;3.35;;
73296;SDS011;61524;50.938;11.396;2022-11-15T09:11:07;6.93;;;2.65;;
73296;SDS011;61524;50.938;11.396;2022-11-15T09:13:33;5.22;;;2.90;;
73296;SDS011;61524;50.938;11.396;2022-11-15T09:16:00;6.03;;;2.60;;
73296;SDS011;61524;50.938;11.396;2022-11-15T09:18:26;4.10;;;2.15;;
73296;SDS011;61524;50.938;11.396;2022-11-15T09:20:54;4.55;;;2.47;;
73296;SDS011;61524;50.938;11.396;2022-11-15T09:23:23;5.25;;;2.75;;
73296;SDS011;61524;50.938;11.396;2022-11-15T09:25:50;4.93;;;2.97;;
73296;SDS011;61524;50.938;11.396;2022-11-15T09:28:16;5.68;;;2.83;;
73296;SDS011;61524;50.938;11.396;2022-11-15T09:30:41;4.20;;;1.88;;
73296;SDS011;61524;50.938;11.396;2022-11-15T09:33:11;5.32;;;2.60;;
73296;SDS011;61524;50.938;11.396;2022-11-15T09:35:37;4.53;;;2.45;;
73296;SDS011;61524;50.938;11.396;2022-11-15T09:38:03;4.25;;;2.30;;
73296;SDS011;61524;50.938;11.396;2022-11-15T09:40:30;5.65;;;3.33;;
73296;SDS011;61524;50.938;11.396;2022-11-15T09:45:31;5.18;;;2.45;;
73296;SDS011;61524;50.938;11.396;2022-11-15T09:48:07;4.85;;;2.13;;
73296;SDS011;61524;50.938;11.396;2022-11-15T09:50:51;4.88;;;2.42;;
73296;SDS011;61524;50.938;11.396;2022-11-15T09:53:23;5.13;;;2.17;;
73296;SDS011;61524;50.938;11.396;2022-11-15T09:55:59;5.05;;;2.55;;
73296;SDS011;61524;50.938;11.396;2022-11-15T09:58:43;6.15;;;2.80;;
73296;SDS011;61524;50.938;11.396;2022-11-15T10:02:28;3.47;;;2.10;;
73296;SDS011;61524;50.938;11.396;2022-11-15T10:04:33;5.20;;;2.50;;
73296;SDS011;61524;50.938;11.396;2022-11-15T10:07:09;5.45;;;2.40;;
73296;SDS011;61524;50.938;11.396;2022-11-15T10:10:04;4.40;;;2.05;;
73296;SDS011;61524;50.938;11.396;2022-11-15T10:12:40;4.60;;;2.17;;
73296;SDS011;61524;50.938;11.396;2022-11-15T10:15:13;3.80;;;1.88;;
73296;SDS011;61524;50.938;11.396;2022-11-15T10:20:30;4.22;;;1.77;;
73296;SDS011;61524;50.938;11.396;2022-11-15T10:23:10;4.50;;;2.10;;
73296;SDS011;61524;50.938;11.396;2022-11-15T10:25:38;4.32;;;2.22;;
73296;SDS011;61524;50.938;11.396;2022-11-15T10:28:12;5.50;;;2.40;;
73296;SDS011;61524;50.938;11.396;2022-11-15T10:30:47;4.38;;;2.13;;
73296;SDS011;61524;50.938;11.396;2022-11-15T10:38:49;4.57;;;1.90;;
73296;SDS011;61524;50.938;11.396;2022-11-15T10:41:20;4.20;;;2.22;;
73296;SDS011;61524;50.938;11.396;2022-11-15T10:46:31;3.92;;;1.95;;
73296;SDS011;61524;50.938;11.396;2022-11-15T10:54:10;3.63;;;1.85;;
73296;SDS011;61524;50.938;11.396;2022-11-15T10:56:39;5.05;;;1.50;;
73296;SDS011;61524;50.938;11.396;2022-11-15T10:59:12;3.70;;;1.70;;
73296;SDS011;61524;50.938;11.396;2022-11-15T11:01:47;3.90;;;1.80;;
73296;SDS011;61524;50.938;11.396;2022-11-15T11:04:13;4.00;;;1.63;;
73296;SDS011;61524;50.938;11.396;2022-11-15T11:11:57;4.50;;;1.95;;
73296;SDS011;61524;50.938;11.396;2022-11-15T11:14:24;5.85;;;2.10;;
73296;SDS011;61524;50.938;11.396;2022-11-15T11:30:09;3.70;;;1.90;;
73296;SDS011;61524;50.938;11.396;2022-11-15T11:33:04;4.10;;;1.73;;
73296;SDS011;61524;50.938;11.396;2022-11-15T11:35:32;4.70;;;1.90;;
73296;SDS011;61524;50.938;11.396;2022-11-15T11:38:24;4.28;;;1.70;;
73296;SDS011;61524;50.938;11.396;2022-11-15T12:01:11;4.78;;;1.50;;
73296;SDS011;61524;50.938;11.396;2022-11-15T12:17:33;3.15;;;1.55;;
73296;SDS011;61524;50.938;11.396;2022-11-15T12:19:59;3.92;;;1.60;;
73296;SDS011;61524;50.938;11.396;2022-11-15T12:22:33;5.07;;;1.80;;
73296;SDS011;61524;50.938;11.396;2022-11-15T12:25:27;2.53;;;1.38;;
73296;SDS011;61524;50.938;11.396;2022-11-15T12:27:59;2.85;;;1.10;;
73296;SDS011;61524;50.938;11.396;2022-11-15T12:30:44;5.70;;;1.50;;
73296;SDS011;61524;50.938;11.396;2022-11-15T12:33:43;3.60;;;1.50;;
73296;SDS011;61524;50.938;11.396;2022-11-15T12:36:11;3.67;;;1.42;;
73296;SDS011;61524;50.938;11.396;2022-11-15T12:41:20;3.28;;;1.55;;
73296;SDS011;61524;50.938;11.396;2022-11-15T12:43:48;2.88;;;1.17;;
73296;SDS011;61524;50.938;11.396;2022-11-15T12:48:56;3.50;;;1.42;;
73296;SDS011;61524;50.938;11.396;2022-11-15T13:02:33;2.92;;;1.48;;
73296;SDS011;61524;50.938;11.396;2022-11-15T13:06:03;3.17;;;1.38;;
73296;SDS011;61524;50.938;11.396;2022-11-15T13:08:34;3.47;;;1.65;;
73296;SDS011;61524;50.938;11.396;2022-11-15T13:11:41;2.67;;;1.15;;
73296;SDS011;61524;50.938;11.396;2022-11-15T13:14:34;3.17;;;1.40;;
73296;SDS011;61524;50.938;11.396;2022-11-15T13:17:24;6.00;;;1.70;;
73296;SDS011;61524;50.938;11.396;2022-11-15T13:22:23;4.28;;;1.33;;
73296;SDS011;61524;50.938;11.396;2022-11-15T13:27:57;3.63;;;1.40;;
73296;SDS011;61524;50.938;11.396;2022-11-15T13:30:29;4.13;;;1.98;;
73296;SDS011;61524;50.938;11.396;2022-11-15T13:32:56;3.28;;;1.30;;
73296;SDS011;61524;50.938;11.396;2022-11-15T13:35:27;3.20;;;1.65;;
73296;SDS011;61524;50.938;11.396;2022-11-15T13:37:55;3.03;;;1.30;;
73296;SDS011;61524;50.938;11.396;2022-11-15T13:42:57;3.80;;;1.40;;
73296;SDS011;61524;50.938;11.396;2022-11-15T13:45:23;3.33;;;1.40;;
73296;SDS011;61524;50.938;11.396;2022-11-15T13:47:56;2.78;;;1.30;;
73296;SDS011;61524;50.938;11.396;2022-11-15T13:50:29;2.70;;;1.30;;
73296;SDS011;61524;50.938;11.396;2022-11-15T13:52:59;5.80;;;1.85;;
73296;SDS011;61524;50.938;11.396;2022-11-15T13:55:28;3.58;;;1.50;;
73296;SDS011;61524;50.938;11.396;2022-11-15T13:57:58;3.38;;;1.70;;
73296;SDS011;61524;50.938;11.396;2022-11-15T14:03:06;2.63;;;1.05;;
73296;SDS011;61524;50.938;11.396;2022-11-15T14:05:32;3.45;;;1.40;;
73296;SDS011;61524;50.938;11.396;2022-11-15T14:08:00;3.60;;;1.38;;
73296;SDS011;61524;50.938;11.396;2022-11-15T14:10:30;3.25;;;1.40;;
73296;SDS011;61524;50.938;11.396;2022-11-15T14:13:01;4.38;;;1.45;;
73296;SDS011;61524;50.938;11.396;2022-11-15T14:15:35;2.92;;;1.15;;
73296;SDS011;61524;50.938;11.396;2022-11-15T14:18:03;3.45;;;1.20;;
73296;SDS011;61524;50.938;11.396;2022-11-15T14:22:56;3.95;;;1.50;;
73296;SDS011;61524;50.938;11.396;2022-11-15T14:25:25;4.50;;;1.80;;
73296;SDS011;61524;50.938;11.396;2022-11-15T14:30:40;3.60;;;1.30;;
73296;SDS011;61524;50.938;11.396;2022-11-15T14:33:40;3.97;;;1.50;;
73296;SDS011;61524;50.938;11.396;2022-11-15T14:36:06;5.43;;;1.70;;
73296;SDS011;61524;50.938;11.396;2022-11-15T14:38:35;3.28;;;1.55;;
73296;SDS011;61524;50.938;11.396;2022-11-15T14:41:01;3.88;;;1.20;;
73296;SDS011;61524;50.938;11.396;2022-11-15T14:43:26;4.05;;;1.42;;
73296;SDS011;61524;50.938;11.396;2022-11-15T14:45:52;3.25;;;1.65;;
73296;SDS011;61524;50.938;11.396;2022-11-15T14:48:17;4.18;;;1.70;;
73296;SDS011;61524;50.938;11.396;2022-11-15T14:50:43;3.72;;;1.60;;
73296;SDS011;61524;50.938;11.396;2022-11-15T14:53:13;5.45;;;1.80;;
73296;SDS011;61524;50.938;11.396;2022-11-15T14:55:40;5.65;;;2.28;;
73296;SDS011;61524;50.938;11.396;2022-11-15T14:58:06;12.38;;;3.15;;
73296;SDS011;61524;50.938;11.396;2022-11-15T15:00:36;9.98;;;3.67;;
73296;SDS011;61524;50.938;11.396;2022-11-15T15:03:03;7.30;;;3.20;;
73296;SDS011;61524;50.938;11.396;2022-11-15T15:07:58;6.07;;;3.65;;
73296;SDS011;61524;50.938;11.396;2022-11-15T15:10:23;7.63;;;3.13;;
73296;SDS011;61524;50.938;11.396;2022-11-15T15:12:50;6.60;;;2.80;;
73296;SDS011;61524;50.938;11.396;2022-11-15T15:15:22;7.30;;;2.90;;
73296;SDS011;61524;50.938;11.396;2022-11-15T15:17:49;5.38;;;2.70;;
73296;SDS011;61524;50.938;11.396;2022-11-15T15:20:15;5.55;;;3.30;;
73296;SDS011;61524;50.938;11.396;2022-11-15T15:22:41;6.68;;;2.80;;
73296;SDS011;61524;50.938;11.396;2022-11-15T15:25:28;6.28;;;2.42;;
73296;SDS011;61524;50.938;11.396;2022-11-15T15:27:54;6.78;;;2.90;;
73296;SDS011;61524;50.938;11.396;2022-11-15T15:30:20;5.55;;;3.05;;
73296;SDS011;61524;50.938;11.396;2022-11-15T15:35:12;5.63;;;3.38;;
73296;SDS011;61524;50.938;11.396;2022-11-15T15:40:08;18.25;;;8.27;;
73296;SDS011;61524;50.938;11.396;2022-11-15T15:42:38;7.82;;;3.92;;
73296;SDS011;61524;50.938;11.396;2022-11-15T15:45:03;4.53;;;1.70;;
73296;SDS011;61524;50.938;11.396;2022-11-15T15:47:30;4.43;;;1.80;;
73296;SDS011;61524;50.938;11.396;2022-11-15T15:49:55;7.95;;;2.67;;
73296;SDS011;61524;50.938;11.396;2022-11-15T15:52:21;4.72;;;2.63;;
73296;SDS011;61524;50.938;11.396;2022-11-15T15:54:46;6.47;;;2.33;;
73296;SDS011;61524;50.938;11.396;2022-11-15T15:57:12;5.03;;;2.33;;
73296;SDS011;61524;50.938;11.396;2022-11-15T15:59:38;6.85;;;2.20;;
73296;SDS011;61524;50.938;11.396;2022-11-15T16:02:04;4.82;;;2.13;;
73296;SDS011;61524;50.938;11.396;2022-11-15T16:04:30;4.47;;;2.00;;
73296;SDS011;61524;50.938;11.396;2022-11-15T16:06:58;4.20;;;2.00;;
73296;SDS011;61524;50.938;11.396;2022-11-15T16:09:25;4.57;;;1.98;;
73296;SDS011;61524;50.938;11.396;2022-11-15T16:12:09;6.60;;;2.05;;
73296;SDS011;61524;50.938;11.396;2022-11-15T16:14:34;4.75;;;1.88;;
73296;SDS011;61524;50.938;11.396;2022-11-15T16:17:00;4.13;;;1.80;;
73296;SDS011;61524;50.938;11.396;2022-11-15T16:19:26;6.60;;;2.30;;
73296;SDS011;61524;50.938;11.396;2022-11-15T16:21:52;5.65;;;2.00;;
73296;SDS011;61524;50.938;11.396;2022-11-15T16:24:18;6.82;;;2.60;;
73296;SDS011;61524;50.938;11.396;2022-11-15T16:26:44;4.95;;;2.05;;
73296;SDS011;61524;50.938;11.396;2022-11-15T16:29:10;4.55;;;2.00;;
73296;SDS011;61524;50.938;11.396;2022-11-15T16:31:36;9.18;;;5.70;;
73296;SDS011;61524;50.938;11.396;2022-11-15T16:34:01;14.18;;;6.57;;
73296;SDS011;61524;50.938;11.396;2022-11-15T16:36:28;9.82;;;6.45;;
73296;SDS011;61524;50.938;11.396;2022-11-15T16:38:56;9.98;;;6.55;;
73296;SDS011;61524;50.938;11.396;2022-11-15T16:41:22;14.27;;;7.82;;
73296;SDS011;61524;50.938;11.396;2022-11-15T16:43:48;9.05;;;5.80;;
73296;SDS011;61524;50.938;11.396;2022-11-15T16:46:16;9.50;;;5.70;;
73296;SDS011;61524;50.938;11.396;2022-11-15T16:48:46;6.40;;;3.50;;
73296;SDS011;61524;50.938;11.396;2022-11-15T16:51:12;6.55;;;3.20;;
73296;SDS011;61524;50.938;11.396;2022-11-15T16:53:37;8.98;;;3.25;;
73296;SDS011;61524;50.938;11.396;2022-11-15T16:56:03;4.68;;;2.15;;
73296;SDS011;61524;50.938;11.396;2022-11-15T16:58:29;7.65;;;3.95;;
73296;SDS011;61524;50.938;11.396;2022-11-15T17:00:55;5.10;;;2.85;;
73296;SDS011;61524;50.938;11.396;2022-11-15T17:03:21;5.72;;;2.63;;
73296;SDS011;61524;50.938;11.396;2022-11-15T17:08:13;10.48;;;4.82;;
73296;SDS011;61524;50.938;11.396;2022-11-15T17:10:39;9.27;;;3.38;;
73296;SDS011;61524;50.938;11.396;2022-11-15T17:13:11;12.75;;;5.68;;
73296;SDS011;61524;50.938;11.396;2022-11-15T17:15:37;8.43;;;4.28;;
73296;SDS011;61524;50.938;11.396;2022-11-15T17:18:03;8.70;;;4.53;;
73296;SDS011;61524;50.938;11.396;2022-11-15T17:20:30;7.90;;;4.07;;
73296;SDS011;61524;50.938;11.396;2022-11-15T17:22:56;8.18;;;3.70;;
73296;SDS011;61524;50.938;11.396;2022-11-15T17:25:21;6.90;;;3.72;;